Time;durP1;ratioP1;P1;durP2;ratioP2;P2;SDS_P1;SDS_P2;PMS_P1;PMS_P2;Temp;Humidity;BMP_temperature;BMP_pressure;BME280_temperature;BME280_humidity;BME280_pressure;Samples;Min_cycle;Max_cycle;Signal;HPM_P1;HPM_P2
2023/08/29 00:01:07;;;;;;;4.78;2.58;;;14.10;99.90;;;;;;4923848;29;20035;-80
2023/08/29 00:03:33;;;;;;;5.80;2.42;;;14.00;99.90;;;;;;4925877;29;20525;-80
2023/08/29 00:06:03;;;;;;;7.57;2.58;;;14.10;99.90;;;;;;4924461;29;20032;-80
2023/08/29 00:08:29;;;;;;;5.13;2.45;;;14.10;99.90;;;;;;4935660;29;20050;-79
2023/08/29 00:10:56;;;;;;;7.30;2.35;;;14.10;99.90;;;;;;4944848;29;20379;-80
2023/08/29 00:13:22;;;;;;;4.70;2.63;;;14.10;99.90;;;;;;4928875;28;20052;-80
2023/08/29 00:15:47;;;;;;;4.63;2.20;;;14.10;99.90;;;;;;4925074;29;20047;-79
2023/08/29 00:18:13;;;;;;;5.25;2.50;;;14.20;99.90;;;;;;4935876;29;20039;-80
2023/08/29 00:20:38;;;;;;;5.25;2.40;;;14.20;99.90;;;;;;4926605;29;20032;-80
2023/08/29 00:23:04;;;;;;;4.47;2.20;;;14.20;99.90;;;;;;4938746;29;20035;-79
2023/08/29 00:25:30;;;;;;;6.28;2.55;;;14.20;99.90;;;;;;4926239;29;20051;-80
2023/08/29 00:27:55;;;;;;;8.90;2.47;;;14.20;99.90;;;;;;4922406;29;20035;-80
2023/08/29 00:30:21;;;;;;;5.82;2.40;;;14.20;99.90;;;;;;4917689;29;20803;-80
2023/08/29 00:32:46;;;;;;;5.45;2.95;;;14.20;99.90;;;;;;4921791;29;20035;-80
2023/08/29 00:35:12;;;;;;;9.18;2.95;;;14.20;99.90;;;;;;4926328;29;20039;-80
2023/08/29 00:37:37;;;;;;;4.82;2.63;;;14.20;99.90;;;;;;4920588;29;20154;-80
2023/08/29 00:40:04;;;;;;;8.93;2.63;;;14.20;99.90;;;;;;4938962;29;20753;-80
2023/08/29 00:42:29;;;;;;;7.13;2.90;;;14.20;99.90;;;;;;4926237;29;20042;-80
2023/08/29 00:44:55;;;;;;;4.97;2.47;;;14.20;99.90;;;;;;4931283;29;20500;-80
2023/08/29 00:47:20;;;;;;;5.80;2.70;;;14.20;99.90;;;;;;4930456;29;20380;-79
2023/08/29 00:49:46;;;;;;;5.68;2.75;;;14.20;99.90;;;;;;4905359;29;20036;-79
2023/08/29 00:52:11;;;;;;;6.90;3.15;;;14.20;99.90;;;;;;4912895;29;20383;-80
2023/08/29 00:54:37;;;;;;;4.40;2.67;;;14.20;99.90;;;;;;4924918;29;20045;-79
2023/08/29 00:57:03;;;;;;;4.63;2.70;;;14.20;99.90;;;;;;4925312;29;20050;-80
2023/08/29 00:59:28;;;;;;;5.20;2.30;;;14.20;99.90;;;;;;4926222;29;20107;-80
2023/08/29 01:01:54;;;;;;;5.43;2.50;;;14.20;99.90;;;;;;4924570;29;20032;-80
2023/08/29 01:04:20;;;;;;;6.43;3.10;;;14.20;99.90;;;;;;4925195;29;20047;-80
2023/08/29 01:06:46;;;;;;;5.13;2.72;;;14.20;99.90;;;;;;4921242;29;20023;-79
2023/08/29 01:09:11;;;;;;;5.47;2.90;;;14.20;99.90;;;;;;4939063;29;20147;-80
2023/08/29 01:12:04;;;;;;;5.80;2.75;;;14.20;99.90;;;;;;4928403;29;20134;-79
2023/08/29 01:14:37;;;;;;;5.95;2.88;;;14.20;99.90;;;;;;4930260;29;20051;-80
2023/08/29 01:17:08;;;;;;;7.53;2.90;;;14.20;99.90;;;;;;4934237;29;20741;-80
2023/08/29 01:19:39;;;;;;;6.90;2.90;;;14.20;99.90;;;;;;4945159;29;20118;-80
2023/08/29 01:22:20;;;;;;;3.65;2.28;;;14.20;99.90;;;;;;4929751;29;20039;-80
2023/08/29 01:24:54;;;;;;;4.45;2.30;;;14.20;99.90;;;;;;4943956;28;20138;-80
2023/08/29 01:27:20;;;;;;;4.88;2.45;;;14.20;99.90;;;;;;4926708;28;20114;-80
2023/08/29 01:29:46;;;;;;;5.63;2.65;;;14.20;99.90;;;;;;4931676;29;20051;-80
2023/08/29 01:32:14;;;;;;;6.28;3.22;;;14.20;99.90;;;;;;4932377;29;20047;-80
2023/08/29 01:34:42;;;;;;;5.60;3.03;;;14.20;99.90;;;;;;4923596;29;20028;-80
2023/08/29 01:37:07;;;;;;;6.72;2.85;;;14.20;99.90;;;;;;4935354;29;20042;-79
2023/08/29 01:39:33;;;;;;;7.13;2.90;;;14.20;99.90;;;;;;4921830;29;20031;-80
2023/08/29 01:41:58;;;;;;;7.32;2.72;;;14.20;99.90;;;;;;4934797;29;20055;-80
2023/08/29 01:44:24;;;;;;;5.82;2.70;;;14.20;99.90;;;;;;4927289;29;20138;-80
2023/08/29 01:46:50;;;;;;;5.15;2.75;;;14.20;99.90;;;;;;4930859;29;20164;-79
2023/08/29 01:49:15;;;;;;;8.45;2.90;;;14.30;99.90;;;;;;4922345;29;20036;-79
2023/08/29 01:51:41;;;;;;;5.40;2.70;;;14.20;99.90;;;;;;4928171;29;20036;-80
2023/08/29 01:54:06;;;;;;;4.03;2.35;;;14.20;99.90;;;;;;4924899;29;20087;-80
2023/08/29 01:56:33;;;;;;;9.88;3.10;;;14.20;99.90;;;;;;4928133;29;20101;-79
2023/08/29 01:58:59;;;;;;;6.47;2.90;;;14.20;99.90;;;;;;4929564;29;20474;-80
2023/08/29 02:01:25;;;;;;;4.75;2.67;;;14.20;99.90;;;;;;4924825;29;20031;-80
2023/08/29 02:03:51;;;;;;;3.55;2.28;;;14.20;99.90;;;;;;4923791;29;20042;-80
2023/08/29 02:06:17;;;;;;;5.10;2.55;;;14.20;99.90;;;;;;4925778;29;20679;-78
2023/08/29 02:08:44;;;;;;;4.80;2.70;;;14.20;99.90;;;;;;4918214;29;20051;-80
2023/08/29 02:11:10;;;;;;;5.00;2.58;;;14.20;99.90;;;;;;4923583;29;20032;-80
2023/08/29 02:13:35;;;;;;;4.38;2.63;;;14.20;99.90;;;;;;4923580;29;20098;-80
2023/08/29 02:16:02;;;;;;;5.95;2.85;;;14.20;99.90;;;;;;4927581;28;20032;-79
2023/08/29 02:18:28;;;;;;;5.00;2.70;;;14.10;99.90;;;;;;4943327;28;20096;-80
2023/08/29 02:20:54;;;;;;;5.07;2.47;;;14.10;99.90;;;;;;4916706;29;20419;-80
2023/08/29 02:23:20;;;;;;;4.00;2.40;;;14.10;99.90;;;;;;4933108;28;20487;-80
2023/08/29 02:25:45;;;;;;;3.60;2.38;;;14.10;99.90;;;;;;4918616;29;20118;-80
2023/08/29 02:28:11;;;;;;;4.72;2.63;;;14.10;99.90;;;;;;4926703;29;20400;-80
2023/08/29 02:30:37;;;;;;;4.97;2.53;;;14.10;99.90;;;;;;4927590;29;20546;-79
2023/08/29 02:33:02;;;;;;;4.78;2.80;;;14.10;99.90;;;;;;4928495;29;20039;-80
2023/08/29 02:35:28;;;;;;;5.03;2.28;;;14.10;99.90;;;;;;4929076;29;20762;-81
2023/08/29 02:37:54;;;;;;;4.55;2.50;;;14.10;99.90;;;;;;4928502;29;20028;-80
2023/08/29 02:40:19;;;;;;;6.32;2.25;;;14.10;99.90;;;;;;4939353;29;20043;-80
2023/08/29 02:42:45;;;;;;;7.18;2.45;;;14.10;99.90;;;;;;4925747;29;20064;-81
2023/08/29 02:45:11;;;;;;;7.05;3.17;;;14.10;99.90;;;;;;4926433;29;20115;-79
2023/08/29 02:47:37;;;;;;;6.90;2.63;;;14.10;99.90;;;;;;4928234;29;20087;-80
2023/08/29 02:50:03;;;;;;;4.80;2.55;;;14.10;99.90;;;;;;4926971;29;20134;-80
2023/08/29 02:52:29;;;;;;;4.57;2.40;;;14.10;99.90;;;;;;4922853;29;20028;-80
2023/08/29 02:54:54;;;;;;;4.70;2.42;;;14.10;99.90;;;;;;4932699;29;20543;-80
2023/08/29 02:57:20;;;;;;;5.05;2.88;;;14.10;99.90;;;;;;4926634;29;20076;-79
2023/08/29 02:59:46;;;;;;;4.72;2.22;;;14.10;99.90;;;;;;4919024;29;20040;-80
2023/08/29 03:02:12;;;;;;;3.72;2.47;;;14.00;99.90;;;;;;4916411;29;20104;-80
2023/08/29 03:04:38;;;;;;;7.55;2.58;;;14.00;99.90;;;;;;4926128;29;20090;-80
2023/08/29 03:07:04;;;;;;;6.25;2.70;;;14.00;99.90;;;;;;4928019;29;20055;-80
2023/08/29 03:09:30;;;;;;;8.55;2.70;;;14.00;99.90;;;;;;4926183;29;20547;-80
2023/08/29 03:11:55;;;;;;;5.30;2.55;;;14.00;99.90;;;;;;4928060;29;20079;-79
2023/08/29 03:14:21;;;;;;;4.85;2.35;;;14.10;99.90;;;;;;4916381;29;20480;-80
2023/08/29 03:16:47;;;;;;;2.92;2.15;;;14.00;99.90;;;;;;4922208;29;20030;-80
2023/08/29 03:19:12;;;;;;;3.92;2.55;;;14.00;99.90;;;;;;4926324;29;20051;-80
2023/08/29 03:21:38;;;;;;;4.82;2.33;;;14.00;99.90;;;;;;4925364;29;20024;-80
2023/08/29 03:24:05;;;;;;;4.07;2.35;;;14.00;99.90;;;;;;4930162;29;20036;-80
2023/08/29 03:26:31;;;;;;;4.15;2.10;;;14.00;99.90;;;;;;4942160;29;20046;-80
2023/08/29 03:28:57;;;;;;;4.80;2.50;;;14.00;99.90;;;;;;4925949;29;20050;-80
2023/08/29 03:31:22;;;;;;;7.93;2.72;;;14.10;99.90;;;;;;4913564;29;20051;-80
2023/08/29 03:33:48;;;;;;;6.18;3.03;;;14.00;99.90;;;;;;4926917;29;20069;-80
2023/08/29 03:36:14;;;;;;;5.95;3.03;;;14.10;99.90;;;;;;4927541;29;20032;-80
2023/08/29 03:38:42;;;;;;;7.72;3.20;;;14.10;99.90;;;;;;4925374;28;20028;-79
2023/08/29 03:41:07;;;;;;;6.85;3.75;;;14.00;99.90;;;;;;4919148;29;20134;-79
2023/08/29 03:43:34;;;;;;;8.15;3.58;;;14.00;99.90;;;;;;4941313;29;20119;-79
2023/08/29 03:46:02;;;;;;;5.22;3.05;;;14.00;99.90;;;;;;4924762;29;20089;-79
2023/08/29 03:48:31;;;;;;;7.13;3.00;;;14.00;99.90;;;;;;4927629;29;20468;-79
2023/08/29 03:51:06;;;;;;;6.28;2.92;;;14.00;99.90;;;;;;4922006;29;20039;-78
2023/08/29 03:53:36;;;;;;;4.30;2.45;;;14.10;99.90;;;;;;4926156;29;20036;-79
2023/08/29 03:56:06;;;;;;;7.65;2.53;;;14.00;99.90;;;;;;4926992;29;20031;-79
2023/08/29 03:58:32;;;;;;;4.68;2.45;;;14.10;99.90;;;;;;4927059;29;20032;-79
2023/08/29 04:00:58;;;;;;;5.88;2.85;;;14.00;99.90;;;;;;4937890;29;20028;-80
2023/08/29 04:03:24;;;;;;;5.78;2.85;;;14.10;99.90;;;;;;4920066;29;20039;-80
2023/08/29 04:05:50;;;;;;;6.53;3.00;;;14.10;99.90;;;;;;4927113;29;20043;-79
2023/08/29 04:08:16;;;;;;;7.28;3.03;;;14.10;99.90;;;;;;4924006;29;20168;-79
2023/08/29 04:10:42;;;;;;;4.72;2.90;;;14.10;99.90;;;;;;4925536;29;20040;-79
2023/08/29 04:13:08;;;;;;;9.05;4.50;;;14.10;99.90;;;;;;4925725;29;20020;-80
2023/08/29 04:15:34;;;;;;;7.15;3.95;;;14.10;99.90;;;;;;4924576;29;20035;-79
2023/08/29 04:18:01;;;;;;;6.70;4.18;;;14.10;99.90;;;;;;4926152;29;20059;-78
2023/08/29 04:20:28;;;;;;;8.00;4.20;;;14.10;99.90;;;;;;4933660;29;20805;-80
2023/08/29 04:22:54;;;;;;;10.02;4.35;;;14.10;99.90;;;;;;4925235;29;20111;-79
2023/08/29 04:25:20;;;;;;;6.90;3.78;;;14.10;99.90;;;;;;4927716;29;20035;-79
2023/08/29 04:27:47;;;;;;;6.70;3.65;;;14.10;99.90;;;;;;4927379;29;20047;-79
2023/08/29 04:30:14;;;;;;;7.43;3.92;;;14.10;99.90;;;;;;4915238;29;20032;-82
2023/08/29 04:32:39;;;;;;;9.60;4.10;;;14.10;99.90;;;;;;4922905;29;20031;-80
2023/08/29 04:35:06;;;;;;;6.60;3.33;;;14.10;99.90;;;;;;4916723;29;20047;-80
2023/08/29 04:37:33;;;;;;;5.72;2.88;;;14.10;99.90;;;;;;4926354;29;20044;-79
2023/08/29 04:39:59;;;;;;;5.80;3.75;;;14.00;99.90;;;;;;4926271;29;20036;-80
2023/08/29 04:42:25;;;;;;;7.85;4.10;;;14.10;99.90;;;;;;4929736;29;20059;-80
2023/08/29 04:44:53;;;;;;;6.88;3.75;;;14.00;99.90;;;;;;4929895;29;20047;-79
2023/08/29 04:47:19;;;;;;;9.63;4.10;;;14.00;99.90;;;;;;4929633;29;20020;-81
2023/08/29 04:49:45;;;;;;;6.63;3.70;;;14.00;99.90;;;;;;4947171;29;20633;-81
2023/08/29 04:52:10;;;;;;;7.38;4.57;;;14.00;99.90;;;;;;4926745;29;20032;-81
2023/08/29 04:54:36;;;;;;;7.30;4.50;;;14.00;99.90;;;;;;4931836;29;20062;-81
2023/08/29 04:57:04;;;;;;;9.52;4.38;;;13.90;99.90;;;;;;4927382;29;20027;-79
2023/08/29 04:59:29;;;;;;;6.40;3.50;;;13.90;99.90;;;;;;4927252;29;20115;-79
2023/08/29 05:01:55;;;;;;;7.90;4.70;;;14.00;99.90;;;;;;4919771;29;20807;-79
2023/08/29 05:04:21;;;;;;;8.00;4.20;;;14.00;99.90;;;;;;4912175;29;20452;-81
2023/08/29 05:06:47;;;;;;;9.50;4.72;;;14.00;99.90;;;;;;4919344;29;20032;-78
2023/08/29 05:09:12;;;;;;;10.10;5.32;;;14.00;99.90;;;;;;4933719;29;20497;-78
2023/08/29 05:11:38;;;;;;;10.48;4.60;;;14.00;99.90;;;;;;4944363;29;20047;-79
2023/08/29 05:14:03;;;;;;;8.25;4.25;;;14.00;99.90;;;;;;4931853;29;20043;-82
2023/08/29 05:16:29;;;;;;;7.97;4.47;;;14.00;99.90;;;;;;4924564;29;20024;-80
2023/08/29 05:18:54;;;;;;;9.02;5.45;;;14.10;99.90;;;;;;4911524;29;20559;-81
2023/08/29 05:21:20;;;;;;;7.60;4.68;;;14.10;99.90;;;;;;4918776;29;20157;-81
2023/08/29 05:23:46;;;;;;;5.80;4.00;;;14.10;99.90;;;;;;4936486;29;20383;-82
2023/08/29 05:26:11;;;;;;;9.60;6.32;;;14.10;99.90;;;;;;4943298;28;20032;-82
2023/08/29 05:28:37;;;;;;;10.73;5.40;;;14.10;99.90;;;;;;4932230;29;20027;-82
2023/08/29 05:31:02;;;;;;;10.77;5.05;;;14.20;99.90;;;;;;4913897;29;20115;-81
2023/08/29 05:33:29;;;;;;;9.25;4.82;;;14.20;99.90;;;;;;4923274;29;20039;-81
2023/08/29 05:35:55;;;;;;;6.80;4.00;;;14.20;99.90;;;;;;4928240;29;20036;-81
2023/08/29 05:38:25;;;;;;;7.28;3.65;;;14.30;99.90;;;;;;4945143;29;20079;-81
2023/08/29 05:40:52;;;;;;;5.45;2.90;;;14.30;99.90;;;;;;4929508;29;20055;-82
2023/08/29 05:43:18;;;;;;;7.43;2.75;;;14.40;99.90;;;;;;4923115;29;20032;-81
2023/08/29 05:45:43;;;;;;;6.30;2.95;;;14.40;99.90;;;;;;4927586;29;20051;-79
2023/08/29 05:48:09;;;;;;;5.75;2.38;;;14.40;99.90;;;;;;4924361;29;20484;-81
2023/08/29 05:50:34;;;;;;;2.75;1.85;;;14.50;99.90;;;;;;4925977;29;20040;-80
2023/08/29 05:53:00;;;;;;;5.93;2.53;;;14.60;99.90;;;;;;4927812;29;20043;-82
2023/08/29 05:55:26;;;;;;;4.30;2.28;;;14.60;99.90;;;;;;4927349;29;20038;-80
2023/08/29 05:57:51;;;;;;;5.05;2.63;;;14.60;99.90;;;;;;4925877;29;20043;-81
2023/08/29 06:00:19;;;;;;;5.65;2.20;;;14.70;99.90;;;;;;4926374;29;20031;-81
2023/08/29 06:02:44;;;;;;;4.03;2.25;;;14.70;99.90;;;;;;4935263;29;20081;-81
2023/08/29 06:05:10;;;;;;;5.88;2.40;;;14.80;99.90;;;;;;4927469;29;20594;-80
2023/08/29 06:07:38;;;;;;;2.80;1.90;;;14.80;99.90;;;;;;4930657;29;20229;-81
2023/08/29 06:10:07;;;;;;;9.70;4.82;;;14.90;99.90;;;;;;4921684;29;20016;-80
2023/08/29 06:12:33;;;;;;;7.53;3.60;;;14.90;99.90;;;;;;4927153;29;20039;-81
2023/08/29 06:14:59;;;;;;;5.38;3.38;;;15.00;99.90;;;;;;4926145;29;20031;-82
2023/08/29 06:17:24;;;;;;;4.82;2.30;;;15.00;99.90;;;;;;4937868;29;20046;-82
2023/08/29 06:19:50;;;;;;;5.70;2.45;;;15.10;99.90;;;;;;4927838;29;20047;-80
2023/08/29 06:22:15;;;;;;;3.92;2.25;;;15.20;99.90;;;;;;4928485;29;20046;-81
2023/08/29 06:24:41;;;;;;;3.03;1.95;;;15.20;99.90;;;;;;4922568;29;20048;-81
2023/08/29 06:27:06;;;;;;;5.80;2.30;;;15.30;99.90;;;;;;4920153;29;20032;-81
2023/08/29 06:29:32;;;;;;;6.63;2.35;;;15.40;99.90;;;;;;4923455;29;20047;-81
2023/08/29 06:31:58;;;;;;;3.95;2.10;;;15.50;99.90;;;;;;4921108;29;20478;-81
2023/08/29 06:34:24;;;;;;;5.63;2.10;;;15.50;99.90;;;;;;4910988;29;20032;-82
2023/08/29 06:36:50;;;;;;;6.90;2.50;;;15.60;99.90;;;;;;4920236;29;20128;-80
2023/08/29 06:39:15;;;;;;;5.60;2.60;;;15.60;99.90;;;;;;4909499;29;20028;-82
2023/08/29 06:41:41;;;;;;;5.28;2.67;;;15.70;99.90;;;;;;4925548;29;20059;-81
2023/08/29 06:44:07;;;;;;;6.07;4.13;;;15.70;99.90;;;;;;4924209;29;20387;-82
2023/08/29 06:46:33;;;;;;;5.40;2.17;;;15.80;99.90;;;;;;4923966;29;20048;-82
2023/08/29 06:48:59;;;;;;;6.35;2.20;;;15.90;99.90;;;;;;4922282;29;20033;-82
2023/08/29 06:51:25;;;;;;;8.38;2.20;;;15.90;99.90;;;;;;4922657;29;20038;-85
2023/08/29 06:53:50;;;;;;;3.78;2.05;;;16.00;99.90;;;;;;4927645;29;20028;-84
2023/08/29 06:56:16;;;;;;;6.70;2.25;;;16.10;99.90;;;;;;4928404;29;20044;-83
2023/08/29 06:58:41;;;;;;;5.63;2.50;;;16.20;99.90;;;;;;4928997;29;20138;-84
2023/08/29 07:01:07;;;;;;;4.45;2.40;;;16.40;99.90;;;;;;4931527;29;20028;-82
2023/08/29 07:03:33;;;;;;;4.13;2.20;;;16.50;99.90;;;;;;4925201;29;20684;-80
2023/08/29 07:05:59;;;;;;;6.80;2.38;;;16.60;99.90;;;;;;4917609;29;20158;-81
2023/08/29 07:08:24;;;;;;;7.93;2.63;;;16.60;99.90;;;;;;4927941;29;20051;-81
2023/08/29 07:10:50;;;;;;;5.22;2.25;;;16.70;99.90;;;;;;4929985;29;20774;-80
2023/08/29 07:13:16;;;;;;;5.30;2.08;;;16.70;99.90;;;;;;4924516;29;20754;-81
2023/08/29 07:15:42;;;;;;;4.57;2.20;;;16.80;99.90;;;;;;4920981;29;20036;-81
2023/08/29 07:18:07;;;;;;;3.58;2.00;;;16.90;99.90;;;;;;4928680;29;20047;-81
2023/08/29 07:20:33;;;;;;;3.83;2.30;;;17.00;99.90;;;;;;4927493;29;20046;-81
2023/08/29 07:22:59;;;;;;;6.30;2.08;;;17.10;99.90;;;;;;4929005;29;20094;-82
2023/08/29 07:25:44;;;;;;;3.72;2.00;;;17.20;99.90;;;;;;4925345;29;20043;-82
2023/08/29 07:28:13;;;;;;;6.90;2.58;;;17.30;99.90;;;;;;4922086;29;20115;-80
2023/08/29 07:30:51;;;;;;;4.57;2.17;;;17.30;99.90;;;;;;4939477;29;20046;-82
2023/08/29 07:33:20;;;;;;;4.65;2.40;;;17.50;99.90;;;;;;4931448;28;20048;-80
2023/08/29 07:35:47;;;;;;;4.18;2.00;;;17.70;99.90;;;;;;4928284;29;20127;-79
2023/08/29 07:38:13;;;;;;;5.88;2.22;;;17.80;99.90;;;;;;4923461;29;20047;-80
2023/08/29 07:40:39;;;;;;;5.15;2.25;;;18.00;99.90;;;;;;4582140;29;10000498;-81
2023/08/29 07:43:06;;;;;;;5.65;2.10;;;18.20;99.90;;;;;;4928325;29;20036;-80
2023/08/29 07:45:33;;;;;;;4.13;1.90;;;18.40;99.90;;;;;;4921746;29;20054;-80
2023/08/29 07:47:59;;;;;;;5.13;2.13;;;18.60;99.90;;;;;;4921217;29;20032;-80
2023/08/29 07:50:25;;;;;;;5.13;2.20;;;18.60;99.90;;;;;;4925406;29;20046;-81
2023/08/29 07:52:51;;;;;;;3.20;1.58;;;18.70;99.90;;;;;;4924474;29;20142;-80
2023/08/29 07:55:17;;;;;;;4.70;1.92;;;18.80;99.90;;;;;;4922096;29;20119;-81
2023/08/29 07:57:43;;;;;;;4.18;2.17;;;18.90;99.90;;;;;;4952151;28;20595;-80
2023/08/29 08:00:12;;;;;;;4.88;2.08;;;19.10;99.90;;;;;;4908487;29;20477;-79
2023/08/29 08:02:41;;;;;;;8.50;2.20;;;19.20;99.90;;;;;;4922639;29;20092;-81
2023/08/29 08:05:14;;;;;;;6.50;1.95;;;19.20;99.90;;;;;;4923619;29;20085;-80
2023/08/29 08:07:42;;;;;;;6.57;1.73;;;19.30;99.90;;;;;;4927418;29;20431;-85
2023/08/29 08:10:08;;;;;;;3.42;2.00;;;19.50;99.90;;;;;;4922760;29;20405;-81
2023/08/29 08:12:35;;;;;;;3.97;1.90;;;19.50;99.90;;;;;;4924799;29;20036;-80
2023/08/29 08:15:04;;;;;;;4.13;2.00;;;19.50;99.90;;;;;;4922793;29;20032;-80
2023/08/29 08:17:30;;;;;;;3.35;1.50;;;19.60;99.90;;;;;;4926162;29;20440;-80
2023/08/29 08:19:55;;;;;;;3.58;1.60;;;19.70;99.90;;;;;;4925023;29;20071;-80
2023/08/29 08:22:22;;;;;;;5.00;2.05;;;19.90;99.90;;;;;;4921219;29;20038;-81
2023/08/29 08:24:48;;;;;;;3.92;2.10;;;20.10;99.90;;;;;;4927480;29;20492;-81
2023/08/29 08:27:14;;;;;;;5.78;1.98;;;20.20;99.90;;;;;;4927474;29;20038;-80
2023/08/29 08:29:39;;;;;;;4.32;2.00;;;20.30;99.90;;;;;;4924654;29;20487;-81
2023/08/29 08:32:05;;;;;;;4.25;2.10;;;20.40;99.90;;;;;;4928873;29;20031;-81
2023/08/29 08:34:31;;;;;;;3.20;1.73;;;20.50;99.90;;;;;;4926668;29;20087;-81
2023/08/29 08:36:56;;;;;;;3.65;1.90;;;20.50;99.90;;;;;;4922291;29;20165;-81
2023/08/29 08:39:22;;;;;;;3.13;1.80;;;20.60;99.90;;;;;;4923015;29;20055;-81
2023/08/29 08:41:48;;;;;;;4.60;1.58;;;20.70;99.90;;;;;;4917705;29;20118;-80
2023/08/29 08:44:17;;;;;;;4.80;1.98;;;20.70;99.90;;;;;;4921964;29;20044;-80
2023/08/29 08:46:44;;;;;;;2.33;1.40;;;20.70;99.90;;;;;;4922201;29;20051;-79
2023/08/29 08:49:10;;;;;;;6.47;1.80;;;20.80;99.90;;;;;;4926104;29;20031;-79
2023/08/29 08:51:39;;;;;;;3.80;1.80;;;20.90;99.90;;;;;;4924931;29;20036;-79
2023/08/29 08:54:09;;;;;;;3.95;1.73;;;21.10;99.90;;;;;;4917824;29;20498;-78
2023/08/29 08:56:36;;;;;;;4.95;2.08;;;21.20;99.90;;;;;;4924010;29;20039;-77
2023/08/29 08:59:03;;;;;;;4.80;1.77;;;21.20;99.90;;;;;;4925743;29;20028;-78
2023/08/29 09:01:29;;;;;;;3.05;1.55;;;21.30;99.90;;;;;;4925187;29;20515;-77
2023/08/29 09:03:55;;;;;;;3.47;1.52;;;21.40;99.90;;;;;;4936132;29;20039;-77
2023/08/29 09:06:21;;;;;;;4.32;1.83;;;21.40;99.90;;;;;;4918727;29;20125;-77
2023/08/29 09:08:46;;;;;;;4.68;1.77;;;21.30;99.90;;;;;;4920739;29;20499;-77
2023/08/29 09:11:12;;;;;;;3.35;1.60;;;21.30;99.90;;;;;;4916818;29;20039;-78
2023/08/29 09:13:49;;;;;;;5.40;1.80;;;21.20;99.90;;;;;;4918313;29;20083;-77
2023/08/29 09:16:16;;;;;;;6.75;2.00;;;21.30;99.90;;;;;;4925756;29;20035;-78
2023/08/29 09:18:49;;;;;;;4.03;1.98;;;21.40;99.90;;;;;;4923217;29;20027;-78
2023/08/29 09:21:21;;;;;;;3.63;1.88;;;21.50;99.90;;;;;;4923212;29;20032;-78
2023/08/29 09:23:46;;;;;;;3.53;1.80;;;21.50;99.90;;;;;;4921384;29;20040;-78
2023/08/29 09:26:12;;;;;;;6.57;1.50;;;21.50;99.90;;;;;;4926823;29;20114;-78
2023/08/29 09:28:39;;;;;;;7.00;1.67;;;21.80;99.90;;;;;;4922338;29;20086;-79
2023/08/29 09:31:06;;;;;;;3.42;1.60;;;22.10;99.90;;;;;;4921144;29;20036;-78
2023/08/29 09:33:32;;;;;;;4.78;1.95;;;22.40;99.90;;;;;;4918409;29;20047;-78
2023/08/29 09:36:01;;;;;;;6.35;1.70;;;22.80;99.90;;;;;;4923009;29;20036;-78
2023/08/29 09:38:32;;;;;;;3.55;1.67;;;23.00;99.90;;;;;;4921378;29;20032;-78
2023/08/29 09:40:57;;;;;;;5.65;1.67;;;23.30;99.90;;;;;;4917382;29;20048;-78
2023/08/29 09:43:23;;;;;;;5.37;1.90;;;23.60;99.90;;;;;;4586837;28;10001165;-79
2023/08/29 09:45:51;;;;;;;4.03;1.88;;;23.70;99.90;;;;;;4922567;29;20059;-80
2023/08/29 09:48:18;;;;;;;4.78;1.35;;;24.10;99.90;;;;;;4933838;29;20115;-81
2023/08/29 09:50:45;;;;;;;3.67;1.80;;;24.60;99.90;;;;;;4922481;29;20028;-80
2023/08/29 09:53:14;;;;;;;3.67;1.48;;;25.50;99.20;;;;;;4937251;29;20560;-80
2023/08/29 09:55:44;;;;;;;2.95;1.30;;;26.30;97.70;;;;;;4922449;29;20523;-79
2023/08/29 09:58:10;;;;;;;2.65;1.20;;;26.90;93.30;;;;;;4946909;29;20402;-78
2023/08/29 10:00:37;;;;;;;3.88;1.60;;;27.50;93.40;;;;;;4927557;28;20019;-80
2023/08/29 10:03:07;;;;;;;3.92;1.45;;;28.30;82.90;;;;;;4942379;28;20056;-80
2023/08/29 10:05:35;;;;;;;3.47;1.67;;;29.30;82.50;;;;;;4922953;29;20048;-80
2023/08/29 10:08:13;;;;;;;4.28;1.10;;;30.30;79.50;;;;;;4925573;29;20028;-80
2023/08/29 10:10:41;;;;;;;4.18;1.45;;;31.40;70.90;;;;;;4929865;29;20031;-80
2023/08/29 10:13:09;;;;;;;2.90;1.42;;;32.10;65.90;;;;;;4926127;29;20058;-80
2023/08/29 10:15:36;;;;;;;3.17;1.20;;;32.70;60.80;;;;;;4926987;29;20090;-80
2023/08/29 10:18:02;;;;;;;3.17;1.33;;;32.80;54.00;;;;;;4926434;29;20028;-79
2023/08/29 10:20:28;;;;;;;3.63;1.27;;;32.80;56.00;;;;;;4924560;29;20044;-79
2023/08/29 10:22:54;;;;;;;2.42;1.10;;;32.40;54.20;;;;;;4929459;29;20039;-79
2023/08/29 10:25:21;;;;;;;3.10;1.15;;;32.20;55.80;;;;;;4922419;29;20110;-82
2023/08/29 10:27:49;;;;;;;1.95;0.90;;;32.10;54.00;;;;;;4924931;29;20139;-78
2023/08/29 10:30:15;;;;;;;4.75;1.15;;;31.80;58.40;;;;;;4923400;28;20054;-80
2023/08/29 10:32:43;;;;;;;4.18;1.20;;;31.60;55.30;;;;;;4924322;29;20074;-80
2023/08/29 10:35:20;;;;;;;1.65;1.00;;;32.10;57.10;;;;;;4913626;29;20720;-80
2023/08/29 10:37:54;;;;;;;1.80;0.82;;;33.30;52.10;;;;;;4921413;29;20031;-80
2023/08/29 10:40:21;;;;;;;3.90;1.02;;;34.50;50.20;;;;;;4918416;29;20738;-78
2023/08/29 10:42:56;;;;;;;6.07;0.88;;;35.00;49.20;;;;;;4928154;28;20028;-79
2023/08/29 10:45:41;;;;;;;3.70;1.05;;;34.50;46.10;;;;;;4922166;29;20047;-80
2023/08/29 10:48:07;;;;;;;1.88;0.88;;;35.10;48.90;;;;;;4920843;29;20095;-79
2023/08/29 10:50:33;;;;;;;2.38;1.10;;;36.20;45.90;;;;;;4918987;29;20031;-80
2023/08/29 10:52:59;;;;;;;3.50;1.10;;;36.90;43.70;;;;;;4934835;28;20095;-79
2023/08/29 10:55:32;;;;;;;3.65;1.00;;;36.30;44.30;;;;;;4920223;29;20680;-79
2023/08/29 10:58:00;;;;;;;1.60;0.95;;;35.60;44.40;;;;;;4937090;28;20126;-79
2023/08/29 11:00:52;;;;;;;2.40;0.90;;;34.50;47.60;;;;;;4916418;29;20118;-80
2023/08/29 11:03:42;;;;;;;2.90;1.00;;;33.50;47.70;;;;;;4918060;29;20948;-79
2023/08/29 11:06:07;;;;;;;2.47;1.10;;;32.50;45.90;;;;;;4926758;29;20032;-80
2023/08/29 11:08:33;;;;;;;1.60;1.00;;;32.20;47.90;;;;;;4921069;29;20042;-80
2023/08/29 11:11:20;;;;;;;2.88;0.95;;;32.40;47.90;;;;;;4919048;29;20051;-79
2023/08/29 11:14:03;;;;;;;2.35;1.00;;;32.90;48.80;;;;;;4926690;29;20576;-79
2023/08/29 11:16:37;;;;;;;3.30;1.00;;;32.20;47.80;;;;;;4915788;29;20166;-79
2023/08/29 11:19:14;;;;;;;2.33;1.02;;;31.00;48.20;;;;;;4925231;29;20034;-80
2023/08/29 11:21:44;;;;;;;1.58;1.00;;;30.00;52.00;;;;;;4913160;29;20069;-81
2023/08/29 11:24:10;;;;;;;2.25;1.13;;;29.00;50.80;;;;;;4921666;29;20028;-81
2023/08/29 11:26:40;;;;;;;1.90;1.00;;;28.00;51.70;;;;;;4921084;29;20048;-81
2023/08/29 11:29:06;;;;;;;4.18;1.10;;;27.40;52.60;;;;;;4921793;29;20032;-80
2023/08/29 11:31:39;;;;;;;2.85;1.27;;;27.00;54.40;;;;;;4923463;29;20070;-81
2023/08/29 11:34:10;;;;;;;2.47;1.10;;;26.70;55.10;;;;;;4935767;29;20511;-85
2023/08/29 11:36:36;;;;;;;2.67;1.27;;;26.60;59.30;;;;;;4926618;29;20070;-80
2023/08/29 11:39:04;;;;;;;2.20;1.27;;;27.20;54.70;;;;;;4921978;29;20043;-81
2023/08/29 11:41:29;;;;;;;1.88;1.20;;;27.80;53.80;;;;;;4925468;29;20043;-80
2023/08/29 11:43:59;;;;;;;2.70;1.23;;;28.40;51.70;;;;;;4921847;29;20119;-79
2023/08/29 11:46:32;;;;;;;2.10;1.40;;;28.60;52.00;;;;;;4908308;29;20551;-80
2023/08/29 11:48:57;;;;;;;2.70;1.40;;;28.00;54.70;;;;;;4908149;29;20083;-80
2023/08/29 11:51:23;;;;;;;4.07;1.38;;;27.90;54.70;;;;;;4910404;29;20091;-79
2023/08/29 11:53:50;;;;;;;2.03;1.25;;;27.80;53.50;;;;;;4927178;29;20032;-81
2023/08/29 11:56:16;;;;;;;2.13;1.17;;;27.20;53.20;;;;;;4927777;29;20039;-80
2023/08/29 11:58:42;;;;;;;3.22;1.02;;;26.90;53.70;;;;;;4925604;29;20050;-81
2023/08/29 12:01:08;;;;;;;2.92;1.20;;;26.90;53.30;;;;;;4928964;29;20089;-80
2023/08/29 12:03:38;;;;;;;1.55;1.00;;;26.60;50.20;;;;;;4928083;29;20031;-80
2023/08/29 12:06:09;;;;;;;2.17;1.10;;;26.60;48.10;;;;;;4927650;29;20046;-80
2023/08/29 12:08:43;;;;;;;7.57;1.48;;;26.70;51.20;;;;;;4923239;29;20267;-80
2023/08/29 12:11:13;;;;;;;2.35;1.30;;;26.20;49.00;;;;;;4909646;29;20046;-80
2023/08/29 12:13:41;;;;;;;2.58;1.15;;;25.70;50.60;;;;;;4927299;29;20035;-81
2023/08/29 12:16:16;;;;;;;2.10;1.10;;;25.20;53.10;;;;;;4926313;29;20040;-81
2023/08/29 12:18:43;;;;;;;1.73;1.00;;;25.00;55.90;;;;;;4926593;29;20427;-80
2023/08/29 12:21:13;;;;;;;2.42;1.10;;;25.40;58.20;;;;;;4919602;29;20132;-81
2023/08/29 12:23:39;;;;;;;1.48;0.93;;;25.60;55.50;;;;;;4925497;29;20487;-80
2023/08/29 12:26:05;;;;;;;2.30;1.08;;;26.10;59.60;;;;;;4927395;29;20054;-80
2023/08/29 12:28:30;;;;;;;1.83;1.10;;;26.10;56.10;;;;;;4941643;29;20118;-80
2023/08/29 12:30:56;;;;;;;2.20;1.20;;;26.20;53.20;;;;;;4925647;29;20140;-81
2023/08/29 12:33:23;;;;;;;1.92;1.00;;;26.20;54.10;;;;;;4926560;29;20025;-80
2023/08/29 12:35:50;;;;;;;1.48;0.98;;;26.20;55.60;;;;;;4927407;29;20111;-80
2023/08/29 12:38:15;;;;;;;2.03;1.02;;;26.40;56.20;;;;;;4925713;29;20043;-81
2023/08/29 12:40:44;;;;;;;2.95;1.13;;;26.40;59.10;;;;;;4926958;29;20170;-82
2023/08/29 12:43:11;;;;;;;4.55;1.10;;;26.50;57.50;;;;;;4927256;29;20072;-81
2023/08/29 12:45:36;;;;;;;1.75;1.08;;;26.10;56.60;;;;;;4922155;29;20070;-80